Hlavní strana
METAR-TAF:

METAR-TAF

Letiště :

Gastonia Municipal Airport

Gastonia, Severní Karolína, Spojené státy americké

zeměpisná šířka: 35-11-48N, zeměpisná délka: 081-09-21W, výška: 243 m

Aktuální stav počasí

Zpráva byla vytvořena před 10 minutami, v 09:54 UTC
Severoseverovýchodní vítr 3 kt
Teplota 23°C
Vlhkost vzduchu 89%
Tlak 1019 hPa
Viditelnost: 16.1 km
Skoro jasno ve výšce 500 ft
Zataženo ve výšce 1200 ft

METAR: KAKH 070954Z AUTO 02003KT 10SM FEW005 OVC012 23/21 A3008 RMK AO2 SLP177 T02280206

Čas: 06:04 (10:04 UTC)


TAF: chybějící

Stav a předpovědi počasí z více než 4 000 letišť (zprávy METAR a TAF).

Červené a žluté tečky na mapě představují dostupné meteorologické stanice.

Když kurzor umístíte na tečku, zobrazí se název stanice.

Pak kliknutím zobrazíte stav a předpověď počasí.

Chcete-li změnit mapu, kliknutím na zelené tlačítko se znaménkem +mapu přiblížíte, kliknutím na zelené tlačítko se znaménkem – mapu oddálíte a kliknutím na zelené šipky přejdete na sousední mapy.


METAR-TAF: